createdAt,value
2018-06-29T00:00:16.522Z,20.79
2018-06-29T00:02:45.735Z,20.74
2018-06-29T00:05:15.148Z,20.70
2018-06-29T00:07:44.456Z,20.71
2018-06-29T00:10:23.351Z,20.71
2018-06-29T00:12:53.043Z,20.74
2018-06-29T00:15:22.750Z,20.70
2018-06-29T00:17:52.035Z,20.71
2018-06-29T00:20:21.217Z,20.65
2018-06-29T00:22:50.480Z,20.61
2018-06-29T00:25:19.883Z,20.70
2018-06-29T00:27:49.478Z,20.67
2018-06-29T00:30:18.818Z,20.67
2018-06-29T00:32:48.020Z,20.68
2018-06-29T00:35:17.407Z,20.58
2018-06-29T00:37:46.620Z,20.69
2018-06-29T00:40:15.975Z,20.58
2018-06-29T00:42:45.623Z,20.57
2018-06-29T00:45:14.910Z,20.52
2018-06-29T00:47:44.320Z,20.58
2018-06-29T00:50:14.001Z,20.46
2018-06-29T00:52:43.198Z,20.47
2018-06-29T00:55:12.400Z,20.46
2018-06-29T00:57:41.694Z,20.46
2018-06-29T01:00:11.267Z,20.44
2018-06-29T01:02:40.478Z,20.49
2018-06-29T01:05:09.667Z,20.44
2018-06-29T01:07:38.847Z,20.42
2018-06-29T01:10:08.055Z,20.44
2018-06-29T01:12:37.379Z,20.42
2018-06-29T01:15:06.867Z,20.38
2018-06-29T01:17:36.159Z,20.41
2018-06-29T01:20:05.414Z,20.36
2018-06-29T01:22:34.602Z,20.24
2018-06-29T01:25:03.898Z,20.26
2018-06-29T01:27:33.047Z,20.18
2018-06-29T01:30:02.231Z,20.22
2018-06-29T01:32:31.427Z,20.22
2018-06-29T01:35:00.624Z,20.22
2018-06-29T01:37:30.136Z,20.14
2018-06-29T01:39:59.367Z,20.15
2018-06-29T01:42:28.552Z,20.18
2018-06-29T01:44:57.771Z,20.13
2018-06-29T01:47:26.951Z,20.15
2018-06-29T01:49:56.755Z,20.16
2018-06-29T01:52:25.935Z,20.15
2018-06-29T01:54:55.501Z,20.16
2018-06-29T01:57:24.720Z,20.12
2018-06-29T01:59:54.123Z,20.07
2018-06-29T02:02:23.323Z,20.03
2018-06-29T02:04:52.829Z,20.12
2018-06-29T02:07:22.015Z,20.07
2018-06-29T02:09:51.395Z,20.12
2018-06-29T02:12:20.599Z,20.16
2018-06-29T02:14:50.031Z,20.08
2018-06-29T02:17:19.255Z,20.09
2018-06-29T02:19:48.474Z,20.13
2018-06-29T02:22:17.692Z,20.14
2018-06-29T02:24:46.971Z,20.16
2018-06-29T02:27:16.170Z,20.23
2018-06-29T02:29:45.376Z,20.29
2018-06-29T02:32:14.567Z,20.23
2018-06-29T02:34:43.731Z,20.27
2018-06-29T02:37:13.083Z,20.21
2018-06-29T02:39:42.266Z,20.23
2018-06-29T02:44:43.435Z,20.21
2018-06-29T02:47:12.643Z,20.25
2018-06-29T02:49:41.826Z,20.11
2018-06-29T02:52:11.044Z,20.12
2018-06-29T02:54:40.327Z,20.19
2018-06-29T02:57:09.583Z,20.24
2018-06-29T02:59:38.803Z,20.27
2018-06-29T03:02:08.025Z,20.25
2018-06-29T03:04:37.800Z,20.27
2018-06-29T03:07:07.333Z,20.29
2018-06-29T03:09:36.503Z,20.32
2018-06-29T03:12:05.706Z,20.26
2018-06-29T03:14:34.867Z,20.27
2018-06-29T03:17:04.092Z,20.23
2018-06-29T03:19:33.312Z,20.21
2018-06-29T03:22:02.640Z,20.11
2018-06-29T03:24:31.796Z,20.10
2018-06-29T03:27:01.035Z,20.12
2018-06-29T03:29:30.422Z,20.09
2018-06-29T03:31:59.622Z,20.20
2018-06-29T03:34:28.791Z,20.10
2018-06-29T03:36:58.302Z,20.08
2018-06-29T03:39:27.475Z,20.01
2018-06-29T03:41:57.135Z,20.04
2018-06-29T03:44:26.320Z,20.08
2018-06-29T03:46:55.512Z,20.02
2018-06-29T03:49:24.715Z,20.00
2018-06-29T03:51:54.291Z,20.05
2018-06-29T03:54:23.465Z,20.00
2018-06-29T03:56:53.003Z,19.97
2018-06-29T03:59:22.173Z,19.99
2018-06-29T04:01:51.371Z,20.02
2018-06-29T04:04:20.625Z,20.11
2018-06-29T04:06:50.038Z,20.05
2018-06-29T04:09:19.221Z,20.08
2018-06-29T04:11:48.475Z,20.07
2018-06-29T04:14:17.619Z,20.04
2018-06-29T04:16:46.807Z,20.09
2018-06-29T04:19:16.434Z,20.03
2018-06-29T04:21:45.608Z,20.06
2018-06-29T04:24:14.841Z,20.01
2018-06-29T04:26:44.011Z,20.06
2018-06-29T04:29:13.202Z,20.15
2018-06-29T04:31:42.843Z,20.20
2018-06-29T04:34:12.083Z,20.13
2018-06-29T04:36:41.319Z,20.15
2018-06-29T04:39:11.591Z,20.11
2018-06-29T04:41:40.767Z,20.19
2018-06-29T04:44:10.103Z,20.23
2018-06-29T04:46:39.393Z,20.26
2018-06-29T04:49:08.579Z,20.28
2018-06-29T04:51:37.963Z,20.29
2018-06-29T04:54:07.139Z,20.34
2018-06-29T04:56:36.342Z,20.38
2018-06-29T04:59:05.636Z,20.44
2018-06-29T05:01:34.839Z,20.40
2018-06-29T05:04:04.080Z,20.48
2018-06-29T05:06:33.279Z,20.38
2018-06-29T05:09:02.465Z,20.58
2018-06-29T05:11:31.671Z,20.63
2018-06-29T05:14:00.854Z,20.75
2018-06-29T05:16:30.056Z,20.81
2018-06-29T05:18:59.564Z,20.99
2018-06-29T05:21:29.170Z,20.90
2018-06-29T05:23:58.403Z,20.87
2018-06-29T05:26:28.456Z,20.90
2018-06-29T05:28:57.623Z,21.10
2018-06-29T05:31:27.127Z,21.24
2018-06-29T05:33:56.699Z,21.26
2018-06-29T05:36:25.919Z,21.34
2018-06-29T05:38:55.458Z,21.41
2018-06-29T05:41:24.731Z,21.39
2018-06-29T05:43:53.867Z,21.42
2018-06-29T05:46:23.087Z,21.57
2018-06-29T05:48:52.572Z,21.75
2018-06-29T05:51:21.775Z,21.64
2018-06-29T05:53:50.970Z,21.66
2018-06-29T05:56:20.151Z,21.94
2018-06-29T05:58:49.484Z,22.40
2018-06-29T06:01:18.690Z,22.92
2018-06-29T06:03:47.851Z,23.20
2018-06-29T06:06:17.368Z,23.40
2018-06-29T06:08:46.547Z,22.74
2018-06-29T06:11:16.660Z,22.31
2018-06-29T06:13:45.851Z,21.96
2018-06-29T06:16:15.064Z,22.84
2018-06-29T06:18:44.232Z,24.69
2018-06-29T06:21:13.447Z,26.14
2018-06-29T06:23:42.615Z,26.88
2018-06-29T06:26:11.821Z,27.06
2018-06-29T06:28:41.182Z,28.29
2018-06-29T06:31:11.008Z,27.26
2018-06-29T06:33:40.195Z,26.52
2018-06-29T06:36:09.388Z,27.14
2018-06-29T06:38:38.563Z,27.71
2018-06-29T06:41:08.285Z,28.37
2018-06-29T06:43:37.463Z,27.27
2018-06-29T06:46:06.695Z,27.46
2018-06-29T06:48:35.907Z,27.89
2018-06-29T06:51:05.160Z,28.73
2018-06-29T06:53:34.931Z,29.07
2018-06-29T06:56:04.285Z,28.96
2018-06-29T06:58:33.451Z,29.66
2018-06-29T07:01:02.936Z,29.19
2018-06-29T07:03:32.259Z,30.50
2018-06-29T07:06:01.510Z,30.16
2018-06-29T07:08:30.712Z,30.20
2018-06-29T07:11:00.235Z,30.19
2018-06-29T07:13:29.455Z,29.64
2018-06-29T07:15:58.631Z,30.76
2018-06-29T07:18:27.839Z,31.34
2018-06-29T07:20:57.191Z,31.16
2018-06-29T07:23:26.423Z,31.80
2018-06-29T07:25:55.637Z,30.21
2018-06-29T07:28:25.314Z,29.64
2018-06-29T07:30:54.751Z,31.06
2018-06-29T07:33:24.396Z,30.97
2018-06-29T07:35:53.716Z,30.95
2018-06-29T07:38:22.903Z,31.96
2018-06-29T07:40:52.215Z,30.48
2018-06-29T07:43:21.427Z,31.67
2018-06-29T07:45:50.611Z,32.14
2018-06-29T07:48:22.936Z,32.05
2018-06-29T07:50:52.124Z,32.13
2018-06-29T07:53:21.543Z,32.80
2018-06-29T07:55:50.829Z,32.99
2018-06-29T07:58:20.368Z,32.90
2018-06-29T08:00:49.535Z,31.86
2018-06-29T08:03:18.963Z,29.49
2018-06-29T08:05:48.700Z,29.43
2018-06-29T08:08:17.890Z,29.01
2018-06-29T08:10:47.319Z,29.66
2018-06-29T08:13:16.528Z,30.14
2018-06-29T08:15:45.707Z,30.99
2018-06-29T08:18:14.884Z,30.78
2018-06-29T08:20:44.609Z,30.04
2018-06-29T08:23:13.769Z,31.15
2018-06-29T08:25:42.991Z,32.51
2018-06-29T08:28:12.311Z,33.33
2018-06-29T08:30:41.531Z,34.05
2018-06-29T08:33:11.144Z,33.97
2018-06-29T08:35:40.666Z,33.46
2018-06-29T08:38:09.867Z,35.52
2018-06-29T08:40:39.079Z,35.95
2018-06-29T08:43:08.579Z,36.66
2018-06-29T08:45:37.813Z,35.98
2018-06-29T08:48:07.671Z,35.92
2018-06-29T08:50:36.899Z,36.07
2018-06-29T08:53:06.080Z,36.21
2018-06-29T08:55:35.313Z,35.36
2018-06-29T08:58:04.495Z,35.32
2018-06-29T09:00:33.731Z,36.01
2018-06-29T09:03:03.168Z,35.26
2018-06-29T09:05:32.362Z,36.80
2018-06-29T09:08:01.552Z,36.07
2018-06-29T09:10:30.743Z,35.09
2018-06-29T09:12:59.939Z,36.34
2018-06-29T09:15:29.351Z,35.46
2018-06-29T09:17:58.540Z,35.63
2018-06-29T09:20:27.887Z,35.78
2018-06-29T09:22:57.083Z,36.24
2018-06-29T09:25:26.895Z,35.22
2018-06-29T09:27:56.317Z,36.66
2018-06-29T09:30:25.807Z,35.57
2018-06-29T09:32:55.338Z,36.35
2018-06-29T09:35:24.536Z,35.46
2018-06-29T09:37:53.888Z,36.55
2018-06-29T09:40:23.115Z,38.27
2018-06-29T09:42:52.407Z,38.20
2018-06-29T09:45:22.199Z,38.92
2018-06-29T09:47:51.413Z,38.70
2018-06-29T09:50:20.583Z,38.52
2018-06-29T09:52:49.811Z,35.56
2018-06-29T09:55:19.708Z,35.61
2018-06-29T09:57:48.907Z,36.11
2018-06-29T10:00:33.077Z,36.97
2018-06-29T10:03:02.253Z,34.92
2018-06-29T10:05:31.459Z,33.86
2018-06-29T10:08:00.749Z,36.00
2018-06-29T10:10:29.917Z,35.70
2018-06-29T10:12:59.145Z,35.15
2018-06-29T10:15:28.352Z,37.71
2018-06-29T10:17:57.564Z,36.90
2018-06-29T10:20:26.767Z,35.70
2018-06-29T10:22:56.375Z,33.84
2018-06-29T10:25:25.609Z,32.65
2018-06-29T10:27:54.834Z,35.42
2018-06-29T10:30:24.199Z,37.85
2018-06-29T10:32:53.415Z,38.23
2018-06-29T10:35:23.226Z,37.74
2018-06-29T10:37:52.471Z,37.96
2018-06-29T10:40:21.761Z,39.49
2018-06-29T10:42:51.111Z,38.92
2018-06-29T10:45:20.275Z,40.01
2018-06-29T10:47:49.599Z,39.80
2018-06-29T10:50:18.796Z,39.87
2018-06-29T10:52:48.354Z,40.62
2018-06-29T10:55:17.583Z,39.82
2018-06-29T10:57:46.775Z,39.85
2018-06-29T11:00:15.967Z,40.45
2018-06-29T11:02:45.167Z,40.16
2018-06-29T11:05:14.359Z,38.76
2018-06-29T11:07:43.643Z,39.36
2018-06-29T11:10:12.828Z,39.06
2018-06-29T11:12:42.063Z,39.57
2018-06-29T11:15:11.277Z,39.98
2018-06-29T11:17:40.619Z,40.84
2018-06-29T11:20:09.943Z,41.40
2018-06-29T11:22:39.337Z,40.13
2018-06-29T11:25:08.815Z,39.16
2018-06-29T11:27:38.015Z,40.16
2018-06-29T11:30:07.249Z,40.34
2018-06-29T11:32:36.411Z,40.58
2018-06-29T11:35:05.811Z,39.00
2018-06-29T11:37:34.990Z,38.96
2018-06-29T11:40:05.071Z,39.42
2018-06-29T11:42:34.289Z,37.80
2018-06-29T11:45:03.502Z,40.46
2018-06-29T11:47:32.710Z,40.06
2018-06-29T11:50:01.933Z,39.20
2018-06-29T11:52:31.297Z,38.28
2018-06-29T11:55:00.616Z,39.46
2018-06-29T11:57:29.798Z,39.57
2018-06-29T11:59:58.999Z,38.68
2018-06-29T12:02:28.287Z,39.36
2018-06-29T12:04:57.471Z,39.81
2018-06-29T12:07:26.657Z,40.57
2018-06-29T12:09:55.891Z,41.21
2018-06-29T12:12:25.188Z,41.62
2018-06-29T12:14:54.780Z,39.95
2018-06-29T12:17:24.032Z,41.25
2018-06-29T12:19:53.231Z,40.17
2018-06-29T12:22:22.847Z,38.67
2018-06-29T12:24:52.476Z,39.36
2018-06-29T12:27:21.695Z,40.71
2018-06-29T12:29:50.950Z,40.21
2018-06-29T12:32:20.283Z,41.31
2018-06-29T12:34:49.597Z,40.76
2018-06-29T12:37:18.823Z,39.17
2018-06-29T12:39:48.093Z,40.16
2018-06-29T12:42:17.738Z,39.37
2018-06-29T12:44:47.459Z,39.90
2018-06-29T12:47:16.814Z,39.96
2018-06-29T12:49:46.419Z,40.24
2018-06-29T12:52:15.631Z,40.41
2018-06-29T12:54:44.915Z,40.06
2018-06-29T12:57:14.282Z,41.26
2018-06-29T12:59:43.508Z,40.30
2018-06-29T13:02:12.779Z,40.59
2018-06-29T13:04:42.014Z,39.75
2018-06-29T13:07:11.351Z,39.96
2018-06-29T13:09:40.614Z,38.16
2018-06-29T13:12:09.967Z,38.69
2018-06-29T13:14:39.489Z,37.69
2018-06-29T13:17:08.856Z,38.68
2018-06-29T13:19:38.040Z,37.66
2018-06-29T13:22:07.252Z,37.94
2018-06-29T13:24:36.867Z,39.38
2018-06-29T13:27:06.073Z,38.71
2018-06-29T13:29:35.247Z,38.90
2018-06-29T13:32:04.471Z,40.38
2018-06-29T13:34:33.831Z,40.23
2018-06-29T13:37:03.452Z,40.50
2018-06-29T13:39:32.680Z,39.73
2018-06-29T13:42:02.399Z,38.70
2018-06-29T13:44:32.322Z,39.38
2018-06-29T13:47:01.579Z,39.81
2018-06-29T13:49:30.912Z,40.06
2018-06-29T13:52:00.152Z,38.70
2018-06-29T13:54:29.452Z,37.79
2018-06-29T13:56:59.023Z,38.80
2018-06-29T13:59:28.818Z,39.08
2018-06-29T14:01:58.131Z,39.48
2018-06-29T14:04:27.979Z,39.29
2018-06-29T14:06:57.271Z,39.40
2018-06-29T14:09:27.043Z,39.43
2018-06-29T14:11:56.366Z,37.76
2018-06-29T14:14:25.642Z,36.58
2018-06-29T14:16:55.004Z,36.49
2018-06-29T14:19:24.215Z,37.42
2018-06-29T14:21:53.893Z,37.16
2018-06-29T14:24:23.283Z,36.98
2018-06-29T14:26:52.503Z,38.39
2018-06-29T14:29:21.925Z,37.74
2018-06-29T14:31:51.197Z,37.31
2018-06-29T14:34:20.780Z,37.38
2018-06-29T14:36:50.080Z,36.95
2018-06-29T14:39:20.197Z,36.49
2018-06-29T14:41:49.427Z,36.20
2018-06-29T14:44:18.760Z,35.25
2018-06-29T14:46:48.367Z,35.10
2018-06-29T14:49:17.559Z,34.30
2018-06-29T14:51:47.516Z,33.58
2018-06-29T14:54:18.627Z,34.00
2018-06-29T14:56:50.891Z,34.17
2018-06-29T14:59:24.346Z,33.28
2018-06-29T15:01:54.263Z,33.38
2018-06-29T15:04:23.773Z,32.59
2018-06-29T15:06:53.103Z,33.13
2018-06-29T15:09:23.252Z,34.28
2018-06-29T15:11:52.384Z,33.96
2018-06-29T15:14:21.574Z,33.72
2018-06-29T15:16:50.787Z,33.75
2018-06-29T15:19:20.044Z,33.99
2018-06-29T15:21:49.234Z,33.65
2018-06-29T15:24:18.435Z,33.42
2018-06-29T15:26:47.794Z,32.51
2018-06-29T15:29:17.034Z,32.69
2018-06-29T15:31:46.212Z,32.70
2018-06-29T15:34:15.403Z,32.90
2018-06-29T15:36:44.584Z,33.25
2018-06-29T15:39:14.167Z,33.44
2018-06-29T15:41:43.350Z,33.91
2018-06-29T15:44:12.551Z,34.38
2018-06-29T15:46:41.731Z,33.56
2018-06-29T15:49:10.983Z,33.45
2018-06-29T15:51:40.527Z,32.96
2018-06-29T15:54:10.267Z,32.49
2018-06-29T15:56:41.420Z,32.26
2018-06-29T15:59:10.611Z,31.54
2018-06-29T16:01:40.359Z,30.75
2018-06-29T16:04:10.443Z,30.40
2018-06-29T16:06:40.609Z,30.62
2018-06-29T16:09:11.358Z,30.83
2018-06-29T16:11:40.544Z,31.22
2018-06-29T16:14:10.676Z,31.35
2018-06-29T16:16:40.203Z,31.13
2018-06-29T16:19:09.886Z,31.14
2018-06-29T16:21:39.919Z,31.07
2018-06-29T16:24:10.020Z,30.79
2018-06-29T16:26:40.064Z,30.68
2018-06-29T16:29:09.649Z,30.54
2018-06-29T16:31:39.287Z,30.21
2018-06-29T16:34:08.698Z,30.18
2018-06-29T16:36:38.201Z,30.14
2018-06-29T16:39:09.695Z,29.80
2018-06-29T16:41:40.313Z,29.83
2018-06-29T16:44:11.037Z,29.70
2018-06-29T16:46:40.340Z,29.68
2018-06-29T16:49:10.680Z,29.43
2018-06-29T16:51:39.891Z,29.24
2018-06-29T16:54:09.075Z,29.22
2018-06-29T16:56:38.296Z,29.23
2018-06-29T16:59:07.508Z,29.33
2018-06-29T17:01:36.703Z,29.56
2018-06-29T17:04:06.273Z,29.88
2018-06-29T17:06:35.495Z,30.12
2018-06-29T17:09:06.575Z,29.91
2018-06-29T17:11:35.875Z,29.79
2018-06-29T17:14:05.099Z,30.08
2018-06-29T17:16:34.356Z,29.88
2018-06-29T17:19:06.117Z,30.09
2018-06-29T17:21:36.540Z,30.20
2018-06-29T17:24:07.707Z,30.29
2018-06-29T17:26:37.632Z,30.46
2018-06-29T17:29:09.063Z,30.33
2018-06-29T17:31:39.117Z,30.39
2018-06-29T17:34:09.500Z,30.65
2018-06-29T17:36:39.156Z,30.03
2018-06-29T17:39:11.516Z,30.24
2018-06-29T17:41:41.331Z,30.06
2018-06-29T17:44:10.931Z,30.16
2018-06-29T17:46:40.726Z,30.55
2018-06-29T17:49:10.858Z,30.47
2018-06-29T17:51:40.814Z,30.40
2018-06-29T17:54:10.619Z,30.39
2018-06-29T17:56:41.206Z,30.00
2018-06-29T17:59:12.343Z,29.82
2018-06-29T18:01:45.237Z,29.37
2018-06-29T18:04:14.664Z,29.19
2018-06-29T18:06:43.879Z,29.09
2018-06-29T18:09:14.306Z,28.70
2018-06-29T18:11:43.850Z,28.55
2018-06-29T18:14:13.200Z,28.42
2018-06-29T18:16:42.388Z,28.29
2018-06-29T18:19:12.160Z,28.24
2018-06-29T18:21:41.971Z,28.30
2018-06-29T18:24:12.415Z,28.36
2018-06-29T18:26:42.242Z,28.28
2018-06-29T18:29:11.455Z,28.34
2018-06-29T18:31:40.918Z,28.07
2018-06-29T18:34:11.294Z,27.70
2018-06-29T18:36:40.553Z,27.78
2018-06-29T18:39:11.046Z,27.58
2018-06-29T18:41:40.256Z,27.48
2018-06-29T18:44:09.479Z,27.37
2018-06-29T18:46:38.712Z,27.21
2018-06-29T18:49:09.281Z,27.17
2018-06-29T18:51:40.083Z,27.11
2018-06-29T18:54:10.178Z,26.97
2018-06-29T18:56:40.512Z,26.89
2018-06-29T18:59:12.083Z,26.80
2018-06-29T19:01:41.611Z,26.63
2018-06-29T19:04:10.966Z,26.56
2018-06-29T19:06:40.217Z,26.41
2018-06-29T19:09:10.427Z,26.24
2018-06-29T19:11:39.882Z,26.16
2018-06-29T19:14:11.286Z,25.91
2018-06-29T19:16:41.694Z,25.92
2018-06-29T19:19:13.790Z,25.72
2018-06-29T19:21:44.668Z,25.41
2018-06-29T19:24:15.546Z,25.23
2018-06-29T19:26:44.752Z,24.98
2018-06-29T19:29:16.350Z,24.69
2018-06-29T19:31:45.543Z,24.69
2018-06-29T19:34:14.845Z,24.33
2018-06-29T19:36:44.047Z,23.98
2018-06-29T19:39:14.679Z,23.82
2018-06-29T19:41:43.911Z,23.49
2018-06-29T19:44:13.118Z,23.41
2018-06-29T19:46:42.335Z,23.29
2018-06-29T19:49:12.097Z,23.22
2018-06-29T19:51:41.291Z,23.02
2018-06-29T19:54:10.495Z,22.96
2018-06-29T19:56:39.731Z,23.00
2018-06-29T19:59:11.065Z,22.91
2018-06-29T20:01:41.562Z,22.83
2018-06-29T20:04:14.235Z,22.75
2018-06-29T20:06:45.944Z,22.53
2018-06-29T20:09:17.567Z,22.29
2018-06-29T20:11:48.530Z,22.09
2018-06-29T20:14:18.802Z,22.17
2018-06-29T20:16:49.199Z,22.19
2018-06-29T20:19:22.806Z,22.05
2018-06-29T20:21:53.376Z,22.10
2018-06-29T20:24:26.133Z,22.01
2018-06-29T20:26:57.999Z,21.90
2018-06-29T20:29:30.868Z,21.83
2018-06-29T20:32:01.255Z,21.88
2018-06-29T20:34:31.621Z,21.86
2018-06-29T20:37:02.481Z,21.93
2018-06-29T20:39:43.691Z,21.68
2018-06-29T20:42:14.146Z,21.69
2018-06-29T20:44:44.503Z,21.68
2018-06-29T20:47:14.995Z,21.72
2018-06-29T20:49:47.043Z,21.79
2018-06-29T20:52:16.778Z,21.69
2018-06-29T20:54:46.003Z,21.63
2018-06-29T20:57:15.242Z,21.51
2018-06-29T20:59:44.852Z,21.55
2018-06-29T21:02:17.471Z,21.49
2018-06-29T21:04:47.840Z,21.56
2018-06-29T21:07:18.281Z,21.62
2018-06-29T21:09:48.737Z,21.61
2018-06-29T21:12:19.215Z,21.53
2018-06-29T21:14:51.360Z,21.46
2018-06-29T21:17:22.147Z,21.52
2018-06-29T21:19:53.045Z,21.47
2018-06-29T21:22:23.768Z,21.44
2018-06-29T21:24:53.998Z,21.32
2018-06-29T21:27:24.668Z,21.41
2018-06-29T21:29:55.360Z,21.30
2018-06-29T21:32:26.583Z,21.28
2018-06-29T21:34:56.902Z,21.26
2018-06-29T21:37:29.397Z,21.17
2018-06-29T21:40:00.578Z,21.22
2018-06-29T21:42:31.091Z,21.10
2018-06-29T21:45:02.439Z,21.00
2018-06-29T21:47:33.014Z,21.06
2018-06-29T21:50:05.613Z,21.01
2018-06-29T21:52:35.703Z,20.92
2018-06-29T21:55:07.514Z,20.93
2018-06-29T21:57:37.468Z,20.86
2018-06-29T22:00:13.032Z,20.81
2018-06-29T22:02:46.185Z,20.77
2018-06-29T22:05:17.562Z,20.69
2018-06-29T22:07:47.420Z,20.69
2018-06-29T22:10:18.166Z,20.61
2018-06-29T22:12:48.625Z,20.51
2018-06-29T22:15:23.541Z,20.39
2018-06-29T22:17:53.351Z,20.33
2018-06-29T22:20:25.651Z,20.32
2018-06-29T22:22:57.141Z,20.18
2018-06-29T22:25:27.505Z,20.01
2018-06-29T22:27:57.780Z,19.87
2018-06-29T22:30:28.238Z,19.92
2018-06-29T22:32:57.526Z,19.75
2018-06-29T22:35:26.739Z,19.54
2018-06-29T22:37:55.984Z,19.46
2018-06-29T22:40:25.231Z,19.50
2018-06-29T22:42:54.463Z,19.36
2018-06-29T22:45:23.770Z,19.51
2018-06-29T22:47:53.095Z,19.48
2018-06-29T22:50:22.728Z,19.49
2018-06-29T22:52:52.423Z,19.34
2018-06-29T22:55:21.800Z,19.19
2018-06-29T22:57:50.983Z,19.11
2018-06-29T23:00:21.088Z,19.06
2018-06-29T23:02:50.423Z,18.98
2018-06-29T23:05:19.627Z,18.81
2018-06-29T23:07:48.807Z,18.69
2018-06-29T23:10:18.064Z,18.59
2018-06-29T23:12:47.254Z,18.59
2018-06-29T23:15:16.515Z,18.61
2018-06-29T23:17:45.775Z,18.50
2018-06-29T23:20:16.521Z,18.54
2018-06-29T23:22:45.783Z,18.41
2018-06-29T23:25:15.483Z,18.43
2018-06-29T23:27:44.935Z,18.41
2018-06-29T23:30:15.524Z,18.23
2018-06-29T23:32:44.692Z,18.19
2018-06-29T23:35:14.179Z,18.07
2018-06-29T23:37:43.439Z,18.00
2018-06-29T23:40:12.643Z,18.01
2018-06-29T23:42:41.876Z,17.94
2018-06-29T23:45:11.087Z,17.94
2018-06-29T23:47:40.520Z,17.95
2018-06-29T23:50:09.731Z,17.71
2018-06-29T23:52:39.665Z,17.63
2018-06-29T23:55:08.974Z,17.70
2018-06-29T23:57:38.615Z,17.52
